Lana — WDB2809 — position and weather

sailwx.info

Track history (hours):
 
Tides and Currents Weather Stations Pressure Air Temp Water Temp Dewpoint Dewpoint Depression Visibility Wind Speed Wind Dir Waves Ship Positions

Lana

Owner: MARINE EXPRESS INCORPORATION, ALAMEDA, CA. More information available from US FCC via Universal Licensing System.

Last reported at 2018-Jun-23 19:24 UTC. Time now 2018-Jun-23 19:52 UTC.
Position N 37°47' W 122°17'.

Length 19 m.

Type: Passenger vessel. MMSI: 338108125.

Date/timePositionNaut miles runAvg speedWind from/ knotsBaromVisibWave heightAir tempDewpointWater temp
2018-Jun-23 19:24N 37°47' W 122°17'3 7.8
2018-Jun-23 19:00N 37°46' W 122°21'3 6.6
2018-Jun-23 18:30N 37°47' W 122°17'0 0.0
2018-Jun-23 16:07N 37°47' W 122°17'0 2.8
2018-Jun-23 16:00N 37°47' W 122°18'4 7.8
2018-Jun-23 15:30N 37°46' W 122°22'2 3.3
2018-Jun-23 15:00N 37°44' W 122°21'1 1.3
2018-Jun-23 14:29N 37°45' W 122°20'3 6.2
2018-Jun-23 14:00N 37°48' W 122°20'2 0.3
2018-Jun-23 07:14N 37°47' W 122°17'2 7.6
2018-Jun-23 07:01N 37°48' W 122°19'4 7.4
2018-Jun-23 06:30N 37°50' W 122°24'0 0.1
2018-Jun-23 06:00N 37°50' W 122°23'0 0.0
2018-Jun-23 05:30N 37°50' W 122°23'0 0.7
2018-Jun-23 05:00N 37°50' W 122°24'3 5.7
2018-Jun-23 04:30N 37°48' W 122°21'3 0.5
2018-Jun-22 22:55N 37°47' W 122°17'410.7
2018-Jun-22 22:30N 37°47' W 122°23'4 7.4
2018-Jun-22 22:00N 37°44' W 122°20'4 7.0
2018-Jun-22 21:30N 37°47' W 122°17'0 0.0
2018-Jun-22 16:20N 37°47' W 122°17'3 8.1
2018-Jun-22 16:00N 37°47' W 122°20'5 9.6
2018-Jun-22 15:30N 37°42' W 122°19'3 5.3
2018-Jun-22 15:00N 37°44' W 122°21'0 0.1
2018-Jun-22 14:30N 37°44' W 122°21'0 0.0
2018-Jun-22 13:54N 37°44' W 122°21'0 0.0
2018-Jun-22 13:04N 37°44' W 122°21'0 8.1
2018-Jun-22 13:00N 37°45' W 122°21'4 0.5
2018-Jun-22 05:44N 37°48' W 122°17'2 9.4
2018-Jun-22 05:31N 37°48' W 122°20'3 6.0
2018-Jun-22 05:00N 37°45' W 122°21'4 7.9
2018-Jun-22 04:30N 37°48' W 122°18'0 0.0
2018-Jun-21 15:14N 37°47' W 122°17'0 0.0
2018-Jun-21 14:57N 37°47' W 122°17'0 0.0
2018-Jun-21 01:10N 37°47' W 122°17'1 8.1
2018-Jun-21 01:00N 37°48' W 122°19'2 4.1
2018-Jun-21 00:30N 37°47' W 122°21'0 0.0
2018-Jun-21 00:00N 37°47' W 122°21'1 1.9
2018-Jun-20 23:30N 37°48' W 122°20'2 5.0
2018-Jun-20 23:00N 37°47' W 122°17'1 1.4
2018-Jun-20 22:30N 37°48' W 122°18'2 4.7
2018-Jun-20 22:01N 37°47' W 122°21'0 0.0
2018-Jun-20 21:30N 37°47' W 122°21'0 0.0
2018-Jun-20 21:00N 37°47' W 122°21'3 5.2
2018-Jun-20 20:30N 37°48' W 122°18'3 6.6
2018-Jun-20 20:00N 37°49' W 122°22'611.2
2018-Jun-20 19:30N 37°43' W 122°20'5 9.2
2018-Jun-20 19:00N 37°48' W 122°19'1 0.9
2018-Jun-20 17:39N 37°47' W 122°17'1 5.5
2018-Jun-20 17:30N 37°48' W 122°18'0 0.6
2018-Jun-20 17:00N 37°48' W 122°19'1 1.5
2018-Jun-20 16:30N 37°48' W 122°18'5 5.0
2018-Jun-20 15:34N 37°43' W 122°20'0 0.8
2018-Jun-20 15:30N 37°43' W 122°20'3 6.2
2018-Jun-20 15:00N 37°46' W 122°21'2 4.3
2018-Jun-20 14:30N 37°48' W 122°18'1 1.9
2018-Jun-20 14:00N 37°47' W 122°17'0 0.0
2018-Jun-20 07:11N 37°47' W 122°17'2 9.5
2018-Jun-20 07:01N 37°48' W 122°19'1 2.2
2018-Jun-20 06:30N 37°47' W 122°18'0 0.1
2018-Jun-20 02:56N 37°47' W 122°17'3 6.9
2018-Jun-20 02:30N 37°46' W 122°21'1 1.9
2018-Jun-20 02:00N 37°47' W 122°20'2 5.0
2018-Jun-20 01:30N 37°47' W 122°17'0 0.0
2018-Jun-19 22:52N 37°47' W 122°17'2 6.6
2018-Jun-19 22:30N 37°47' W 122°20'4 4.6
2018-Jun-19 21:33N 37°42' W 122°19'0 0.0
2018-Jun-19 21:13N 37°42' W 122°19'0 0.2
2018-Jun-19 20:55N 37°42' W 122°19'511.0
2018-Jun-19 20:30N 37°47' W 122°20'2 4.7
2018-Jun-19 20:00N 37°47' W 122°17'0 0.0
2018-Jun-19 19:30N 37°47' W 122°17'0 0.0
2018-Jun-19 19:00N 37°47' W 122°17'3 5.3
2018-Jun-19 18:30N 37°46' W 122°20'3 5.6
2018-Jun-19 18:01N 37°47' W 122°17'3151.4
2018-Jun-19 18:00N 37°45' W 122°20'0 0.0
2018-Jun-19 17:30N 37°45' W 122°20'3789.3
2018-Jun-19 17:30N 37°48' W 122°19'2 3.3
2018-Jun-19 17:00N 37°47' W 122°17'311791.8
2018-Jun-19 17:00N 37°45' W 122°20'0 0.0
2018-Jun-19 16:30N 37°45' W 122°20'3 6.0
2018-Jun-19 16:00N 37°48' W 122°18'1 1.3
2018-Jun-19 15:30N 37°47' W 122°17'0 0.0
2018-Jun-19 15:00N 37°47' W 122°17'0 0.0
2018-Jun-19 04:23N 37°48' W 122°18'3 8.8
2018-Jun-19 04:00N 37°46' W 122°21'1 1.6
2018-Jun-19 03:30N 37°45' W 122°22'2 3.3
2018-Jun-19 03:00N 37°45' W 122°20'3 6.8
2018-Jun-19 02:30N 37°47' W 122°23'0 0.1
2018-Jun-19 02:00N 37°47' W 122°23'2 3.3
2018-Jun-19 01:29N 37°46' W 122°21'3 7.0
2018-Jun-19 01:00N 37°48' W 122°18'0 0.4
2018-Jun-19 00:30N 37°48' W 122°17'0 0.0
2018-Jun-18 19:28N 37°47' W 122°17'3 6.1
2018-Jun-18 19:00N 37°46' W 122°20'2 4.9
2018-Jun-18 18:30N 37°47' W 122°23'2 4.3
2018-Jun-18 18:00N 37°46' W 122°21'2 4.1
2018-Jun-18 17:30N 37°48' W 122°19'2 4.5
2018-Jun-18 17:00N 37°46' W 122°20'2 3.5
2018-Jun-18 16:30N 37°44' W 122°20'1 1.5
2018-Jun-18 16:00N 37°45' W 122°20'4 7.2
2018-Jun-18 15:30N 37°47' W 122°17'0 0.0
2018-Jun-18 03:06N 37°47' W 122°17'1 9.6
2018-Jun-18 03:00N 37°48' W 122°19'3 6.7
2018-Jun-18 02:30N 37°47' W 122°23'0 0.8
2018-Jun-18 02:00N 37°47' W 122°23'0 0.0
2018-Jun-18 01:29N 37°47' W 122°23'0 0.0
2018-Jun-18 01:00N 37°47' W 122°23'0 0.0
2018-Jun-18 00:30N 37°47' W 122°23'0 0.0
2018-Jun-18 00:00N 37°47' W 122°23'2 3.1
2018-Jun-17 23:28N 37°46' W 122°21'2 3.5
2018-Jun-17 23:00N 37°47' W 122°23'0 0.0
2018-Jun-17 22:30N 37°47' W 122°23'0 0.1
2018-Jun-17 22:00N 37°47' W 122°23'0 0.0
2018-Jun-17 21:30N 37°47' W 122°23'0 0.0
2018-Jun-17 21:00N 37°47' W 122°23'0 0.0
2018-Jun-17 20:30N 37°47' W 122°23'0 0.0
2018-Jun-17 20:00N 37°47' W 122°23'2 3.3
2018-Jun-17 19:30N 37°46' W 122°21'2 3.1
2018-Jun-17 19:00N 37°47' W 122°23'0 0.0
2018-Jun-17 18:30N 37°47' W 122°23'5 9.3
2018-Jun-17 18:00N 37°47' W 122°17'0 0.0
2018-Jun-17 15:10N 37°47' W 122°17'1 8.4
2018-Jun-17 15:00N 37°48' W 122°19'3 6.9
2018-Jun-17 14:30N 37°47' W 122°23'4 8.1
2018-Jun-17 14:00N 37°48' W 122°18'1 0.1
2018-Jun-17 04:35N 37°47' W 122°17'0 0.2
2018-Jun-17 04:30N 37°47' W 122°17'4 7.7
2018-Jun-17 04:01N 37°47' W 122°22'1 1.8
2018-Jun-17 03:30N 37°47' W 122°23'0 0.0
2018-Jun-17 02:59N 37°47' W 122°23'0 0.0
2018-Jun-17 02:30N 37°47' W 122°23'0 0.1
2018-Jun-17 02:00N 37°47' W 122°23'0 0.7
2018-Jun-17 01:30N 37°47' W 122°23'0 0.8
2018-Jun-17 01:00N 37°47' W 122°23'5 9.4
2018-Jun-17 00:30N 37°47' W 122°17'3 6.5
2018-Jun-17 00:00N 37°46' W 122°21'0 0.1
2018-Jun-16 23:30N 37°46' W 122°21'0 0.4
2018-Jun-16 23:00N 37°46' W 122°21'1 1.9
2018-Jun-16 22:30N 37°47' W 122°22'4 7.3
2018-Jun-16 22:00N 37°47' W 122°18'0 0.2
2018-Jun-16 20:09N 37°47' W 122°17'1 7.6
2018-Jun-16 20:00N 37°48' W 122°19'3 5.5
2018-Jun-16 19:30N 37°46' W 122°22'1 2.1
2018-Jun-16 19:00N 37°47' W 122°23'0 0.7
2018-Jun-16 18:30N 37°47' W 122°23'3 6.3
2018-Jun-16 18:00N 37°48' W 122°19'2 0.9
2018-Jun-16 16:17N 37°47' W 122°17'3 9.2
2018-Jun-16 16:01N 37°48' W 122°20'2 3.5
2018-Jun-16 15:29N 37°46' W 122°22'0 0.1
2018-Jun-16 15:01N 37°46' W 122°22'1 2.5
2018-Jun-16 14:30N 37°47' W 122°23'4 9.0
2018-Jun-16 14:00N 37°48' W 122°17'0 0.0
2018-Jun-15 20:31N 37°47' W 122°17'0 0.0
2018-Jun-15 20:30N 37°47' W 122°17'3 5.3
2018-Jun-15 20:00N 37°46' W 122°20'0 0.1
2018-Jun-15 19:30N 37°46' W 122°20'0 0.3
2018-Jun-15 19:00N 37°46' W 122°20'0 0.1
2018-Jun-15 18:30N 37°46' W 122°20'2 4.3
2018-Jun-15 18:00N 37°48' W 122°18'2 4.3
2018-Jun-15 17:30N 37°46' W 122°20'3 5.4
2018-Jun-15 17:01N 37°47' W 122°17'0 0.0
2018-Jun-14 19:31N 37°47' W 122°17'0 0.2
2018-Jun-14 19:28N 37°47' W 122°17'4 7.8
2018-Jun-14 19:00N 37°45' W 122°20'0 0.0
2018-Jun-14 18:30N 37°45' W 122°20'0 0.0
2018-Jun-14 18:00N 37°45' W 122°20'1 2.8
2018-Jun-14 17:31N 37°46' W 122°20'3 5.5
2018-Jun-14 17:00N 37°47' W 122°17'4 7.3
2018-Jun-14 16:31N 37°46' W 122°21'3 5.5
2018-Jun-14 16:00N 37°48' W 122°19'1 2.0
2018-Jun-14 15:27N 37°47' W 122°17'4 8.2
2018-Jun-14 15:00N 37°46' W 122°22'1 2.5
2018-Jun-14 14:30N 37°47' W 122°23'5 9.2
2018-Jun-14 14:00N 37°47' W 122°17'  
Track history (hours):
 
Tides and Currents Weather Stations Pressure Air Temp Water Temp Dewpoint Dewpoint Depression Visibility Wind Speed Wind Dir Waves Ship Positions

Lana

Owner: MARINE EXPRESS INCORPORATION, ALAMEDA, CA. More information available from US FCC via Universal Licensing System.

Last reported at 2018-Jun-23 19:24 UTC. Time now 2018-Jun-23 19:52 UTC.
Position N 37°47' W 122°17'.

Length 19 m.

Type: Passenger vessel. MMSI: 338108125.

Date/timePositionNaut miles runAvg speedWind from/ knotsBaromVisibWave heightAir tempDewpointWater temp
2018-Jun-23 19:24N 37°47' W 122°17'3 7.8
2018-Jun-23 19:00N 37°46' W 122°21'3 6.6
2018-Jun-23 18:30N 37°47' W 122°17'0 0.0
2018-Jun-23 16:07N 37°47' W 122°17'0 2.8
2018-Jun-23 16:00N 37°47' W 122°18'4 7.8
2018-Jun-23 15:30N 37°46' W 122°22'2 3.3
2018-Jun-23 15:00N 37°44' W 122°21'1 1.3
2018-Jun-23 14:29N 37°45' W 122°20'3 6.2
2018-Jun-23 14:00N 37°48' W 122°20'2 0.3
2018-Jun-23 07:14N 37°47' W 122°17'2 7.6
2018-Jun-23 07:01N 37°48' W 122°19'4 7.4
2018-Jun-23 06:30N 37°50' W 122°24'0 0.1
2018-Jun-23 06:00N 37°50' W 122°23'0 0.0
2018-Jun-23 05:30N 37°50' W 122°23'0 0.7
2018-Jun-23 05:00N 37°50' W 122°24'3 5.7
2018-Jun-23 04:30N 37°48' W 122°21'3 0.5
2018-Jun-22 22:55N 37°47' W 122°17'410.7
2018-Jun-22 22:30N 37°47' W 122°23'4 7.4
2018-Jun-22 22:00N 37°44' W 122°20'4 7.0
2018-Jun-22 21:30N 37°47' W 122°17'0 0.0
2018-Jun-22 16:20N 37°47' W 122°17'3 8.1
2018-Jun-22 16:00N 37°47' W 122°20'5 9.6
2018-Jun-22 15:30N 37°42' W 122°19'3 5.3
2018-Jun-22 15:00N 37°44' W 122°21'0 0.1
2018-Jun-22 14:30N 37°44' W 122°21'0 0.0
2018-Jun-22 13:54N 37°44' W 122°21'0 0.0
2018-Jun-22 13:04N 37°44' W 122°21'0 8.1
2018-Jun-22 13:00N 37°45' W 122°21'4 0.5
2018-Jun-22 05:44N 37°48' W 122°17'2 9.4
2018-Jun-22 05:31N 37°48' W 122°20'3 6.0
2018-Jun-22 05:00N 37°45' W 122°21'4 7.9
2018-Jun-22 04:30N 37°48' W 122°18'0 0.0
2018-Jun-21 15:14N 37°47' W 122°17'0 0.0
2018-Jun-21 14:57N 37°47' W 122°17'0 0.0
2018-Jun-21 01:10N 37°47' W 122°17'1 8.1
2018-Jun-21 01:00N 37°48' W 122°19'2 4.1
2018-Jun-21 00:30N 37°47' W 122°21'0 0.0
2018-Jun-21 00:00N 37°47' W 122°21'1 1.9
2018-Jun-20 23:30N 37°48' W 122°20'2 5.0
2018-Jun-20 23:00N 37°47' W 122°17'1 1.4
2018-Jun-20 22:30N 37°48' W 122°18'2 4.7
2018-Jun-20 22:01N 37°47' W 122°21'0 0.0
2018-Jun-20 21:30N 37°47' W 122°21'0 0.0
2018-Jun-20 21:00N 37°47' W 122°21'3 5.2
2018-Jun-20 20:30N 37°48' W 122°18'3 6.6
2018-Jun-20 20:00N 37°49' W 122°22'611.2
2018-Jun-20 19:30N 37°43' W 122°20'5 9.2
2018-Jun-20 19:00N 37°48' W 122°19'1 0.9
2018-Jun-20 17:39N 37°47' W 122°17'1 5.5
2018-Jun-20 17:30N 37°48' W 122°18'0 0.6
2018-Jun-20 17:00N 37°48' W 122°19'1 1.5
2018-Jun-20 16:30N 37°48' W 122°18'5 5.0
2018-Jun-20 15:34N 37°43' W 122°20'0 0.8
2018-Jun-20 15:30N 37°43' W 122°20'3 6.2
2018-Jun-20 15:00N 37°46' W 122°21'2 4.3
2018-Jun-20 14:30N 37°48' W 122°18'1 1.9
2018-Jun-20 14:00N 37°47' W 122°17'0 0.0
2018-Jun-20 07:11N 37°47' W 122°17'2 9.5
2018-Jun-20 07:01N 37°48' W 122°19'1 2.2
2018-Jun-20 06:30N 37°47' W 122°18'0 0.1
2018-Jun-20 02:56N 37°47' W 122°17'3 6.9
2018-Jun-20 02:30N 37°46' W 122°21'1 1.9
2018-Jun-20 02:00N 37°47' W 122°20'2 5.0
2018-Jun-20 01:30N 37°47' W 122°17'0 0.0
2018-Jun-19 22:52N 37°47' W 122°17'2 6.6
2018-Jun-19 22:30N 37°47' W 122°20'4 4.6
2018-Jun-19 21:33N 37°42' W 122°19'0 0.0
2018-Jun-19 21:13N 37°42' W 122°19'0 0.2
2018-Jun-19 20:55N 37°42' W 122°19'511.0
2018-Jun-19 20:30N 37°47' W 122°20'2 4.7
2018-Jun-19 20:00N 37°47' W 122°17'0 0.0
2018-Jun-19 19:30N 37°47' W 122°17'0 0.0
2018-Jun-19 19:00N 37°47' W 122°17'3 5.3
2018-Jun-19 18:30N 37°46' W 122°20'3 5.6
2018-Jun-19 18:01N 37°47' W 122°17'3151.4
2018-Jun-19 18:00N 37°45' W 122°20'0 0.0
2018-Jun-19 17:30N 37°45' W 122°20'3789.3
2018-Jun-19 17:30N 37°48' W 122°19'2 3.3
2018-Jun-19 17:00N 37°47' W 122°17'311791.8
2018-Jun-19 17:00N 37°45' W 122°20'0 0.0
2018-Jun-19 16:30N 37°45' W 122°20'3 6.0
2018-Jun-19 16:00N 37°48' W 122°18'1 1.3
2018-Jun-19 15:30N 37°47' W 122°17'0 0.0
2018-Jun-19 15:00N 37°47' W 122°17'0 0.0
2018-Jun-19 04:23N 37°48' W 122°18'3 8.8
2018-Jun-19 04:00N 37°46' W 122°21'1 1.6
2018-Jun-19 03:30N 37°45' W 122°22'2 3.3
2018-Jun-19 03:00N 37°45' W 122°20'3 6.8
2018-Jun-19 02:30N 37°47' W 122°23'0 0.1
2018-Jun-19 02:00N 37°47' W 122°23'2 3.3
2018-Jun-19 01:29N 37°46' W 122°21'3 7.0
2018-Jun-19 01:00N 37°48' W 122°18'0 0.4
2018-Jun-19 00:30N 37°48' W 122°17'0 0.0
2018-Jun-18 19:28N 37°47' W 122°17'3 6.1
2018-Jun-18 19:00N 37°46' W 122°20'2 4.9
2018-Jun-18 18:30N 37°47' W 122°23'2 4.3
2018-Jun-18 18:00N 37°46' W 122°21'2 4.1
2018-Jun-18 17:30N 37°48' W 122°19'2 4.5
2018-Jun-18 17:00N 37°46' W 122°20'2 3.5
2018-Jun-18 16:30N 37°44' W 122°20'1 1.5
2018-Jun-18 16:00N 37°45' W 122°20'4 7.2
2018-Jun-18 15:30N 37°47' W 122°17'0 0.0
2018-Jun-18 03:06N 37°47' W 122°17'1 9.6
2018-Jun-18 03:00N 37°48' W 122°19'3 6.7
2018-Jun-18 02:30N 37°47' W 122°23'0 0.8
2018-Jun-18 02:00N 37°47' W 122°23'0 0.0
2018-Jun-18 01:29N 37°47' W 122°23'0 0.0
2018-Jun-18 01:00N 37°47' W 122°23'0 0.0
2018-Jun-18 00:30N 37°47' W 122°23'0 0.0
2018-Jun-18 00:00N 37°47' W 122°23'2 3.1
2018-Jun-17 23:28N 37°46' W 122°21'2 3.5
2018-Jun-17 23:00N 37°47' W 122°23'0 0.0
2018-Jun-17 22:30N 37°47' W 122°23'0 0.1
2018-Jun-17 22:00N 37°47' W 122°23'0 0.0
2018-Jun-17 21:30N 37°47' W 122°23'0 0.0
2018-Jun-17 21:00N 37°47' W 122°23'0 0.0
2018-Jun-17 20:30N 37°47' W 122°23'0 0.0
2018-Jun-17 20:00N 37°47' W 122°23'2 3.3
2018-Jun-17 19:30N 37°46' W 122°21'2 3.1
2018-Jun-17 19:00N 37°47' W 122°23'0 0.0
2018-Jun-17 18:30N 37°47' W 122°23'5 9.3
2018-Jun-17 18:00N 37°47' W 122°17'0 0.0
2018-Jun-17 15:10N 37°47' W 122°17'1 8.4
2018-Jun-17 15:00N 37°48' W 122°19'3 6.9
2018-Jun-17 14:30N 37°47' W 122°23'4 8.1
2018-Jun-17 14:00N 37°48' W 122°18'1 0.1
2018-Jun-17 04:35N 37°47' W 122°17'0 0.2
2018-Jun-17 04:30N 37°47' W 122°17'4 7.7
2018-Jun-17 04:01N 37°47' W 122°22'1 1.8
2018-Jun-17 03:30N 37°47' W 122°23'0 0.0
2018-Jun-17 02:59N 37°47' W 122°23'0 0.0
2018-Jun-17 02:30N 37°47' W 122°23'0 0.1
2018-Jun-17 02:00N 37°47' W 122°23'0 0.7
2018-Jun-17 01:30N 37°47' W 122°23'0 0.8
2018-Jun-17 01:00N 37°47' W 122°23'5 9.4
2018-Jun-17 00:30N 37°47' W 122°17'3 6.5
2018-Jun-17 00:00N 37°46' W 122°21'0 0.1
2018-Jun-16 23:30N 37°46' W 122°21'0 0.4
2018-Jun-16 23:00N 37°46' W 122°21'1 1.9
2018-Jun-16 22:30N 37°47' W 122°22'4 7.3
2018-Jun-16 22:00N 37°47' W 122°18'0 0.2
2018-Jun-16 20:09N 37°47' W 122°17'1 7.6
2018-Jun-16 20:00N 37°48' W 122°19'3 5.5
2018-Jun-16 19:30N 37°46' W 122°22'1 2.1
2018-Jun-16 19:00N 37°47' W 122°23'0 0.7
2018-Jun-16 18:30N 37°47' W 122°23'3 6.3
2018-Jun-16 18:00N 37°48' W 122°19'2 0.9
2018-Jun-16 16:17N 37°47' W 122°17'3 9.2
2018-Jun-16 16:01N 37°48' W 122°20'2 3.5
2018-Jun-16 15:29N 37°46' W 122°22'0 0.1
2018-Jun-16 15:01N 37°46' W 122°22'1 2.5
2018-Jun-16 14:30N 37°47' W 122°23'4 9.0
2018-Jun-16 14:00N 37°48' W 122°17'0 0.0
2018-Jun-15 20:31N 37°47' W 122°17'0 0.0
2018-Jun-15 20:30N 37°47' W 122°17'3 5.3
2018-Jun-15 20:00N 37°46' W 122°20'0 0.1
2018-Jun-15 19:30N 37°46' W 122°20'0 0.3
2018-Jun-15 19:00N 37°46' W 122°20'0 0.1
2018-Jun-15 18:30N 37°46' W 122°20'2 4.3
2018-Jun-15 18:00N 37°48' W 122°18'2 4.3
2018-Jun-15 17:30N 37°46' W 122°20'3 5.4
2018-Jun-15 17:01N 37°47' W 122°17'0 0.0
2018-Jun-14 19:31N 37°47' W 122°17'0 0.2
2018-Jun-14 19:28N 37°47' W 122°17'4 7.8
2018-Jun-14 19:00N 37°45' W 122°20'0 0.0
2018-Jun-14 18:30N 37°45' W 122°20'0 0.0
2018-Jun-14 18:00N 37°45' W 122°20'1 2.8
2018-Jun-14 17:31N 37°46' W 122°20'3 5.5
2018-Jun-14 17:00N 37°47' W 122°17'4 7.3
2018-Jun-14 16:31N 37°46' W 122°21'3 5.5
2018-Jun-14 16:00N 37°48' W 122°19'1 2.0
2018-Jun-14 15:27N 37°47' W 122°17'4 8.2
2018-Jun-14 15:00N 37°46' W 122°22'1 2.5
2018-Jun-14 14:30N 37°47' W 122°23'5 9.2
2018-Jun-14 14:00N 37°47' W 122°17'  

Dump ship's entire track history